Terminal Aerodrome Forecast
Issued by NWS

Home | Current Version | Previous Version | Text Only | Print | Product List | Glossary On
Versions: 1 2 3 4 5 6 7 8 9 10 11 12 13 14 15 16
000
FTUS45 KTFX 261100
TAFHLN
TAF
KHLN 261120Z 2612/2712 VRB04KT 3SM -SN BR SCT010 BKN025
      TEMPO 2612/2615 1SM -SN BR BKN010
     FM261700 VRB03KT 6SM -SHSN BR SCT025 BKN050
      TEMPO 2617/2620 3SM -SHSN BR BKN030
     FM262200 VRB03KT P6SM VCSH OVC070
     FM270200 VRB03KT P6SM BKN100=

USA.gov is the U.S. government's official web portal to all federal, state and local government web resources and services.